createdAt,value
2019-01-25T00:01:06.886Z,90.90
2019-01-25T00:03:39.845Z,90.50
2019-01-25T00:06:12.928Z,90.70
2019-01-25T00:08:45.424Z,90.40
2019-01-25T00:11:17.941Z,90.50
2019-01-25T00:13:50.746Z,90.20
2019-01-25T00:16:23.140Z,90.30
2019-01-25T00:18:55.635Z,90.10
2019-01-25T00:21:28.231Z,90.30
2019-01-25T00:24:00.934Z,90.70
2019-01-25T00:26:33.757Z,90.30
2019-01-25T00:29:06.934Z,90.30
2019-01-25T00:31:39.483Z,90.10
2019-01-25T00:34:12.123Z,90.00
2019-01-25T00:36:44.666Z,90.30
2019-01-25T00:39:17.332Z,90.60
2019-01-25T00:41:49.983Z,90.80
2019-01-25T00:44:22.729Z,90.90
2019-01-25T00:46:55.564Z,90.80
2019-01-25T00:49:29.002Z,91.00
2019-01-25T00:52:01.746Z,90.70
2019-01-25T00:54:34.286Z,91.20
2019-01-25T00:57:07.232Z,91.10
2019-01-25T00:59:40.071Z,91.20
2019-01-25T01:02:12.913Z,90.80
2019-01-25T01:04:45.582Z,91.10
2019-01-25T01:07:18.406Z,91.20
2019-01-25T01:09:51.048Z,90.80
2019-01-25T01:12:23.632Z,90.40
2019-01-25T01:14:56.028Z,91.00
2019-01-25T01:17:28.688Z,91.10
2019-01-25T01:20:01.089Z,91.30
2019-01-25T01:22:33.588Z,91.30
2019-01-25T01:25:06.433Z,91.10
2019-01-25T01:27:39.024Z,91.00
2019-01-25T01:30:21.294Z,91.10
2019-01-25T01:32:55.200Z,91.50
2019-01-25T01:35:27.592Z,91.30
2019-01-25T01:38:00.317Z,90.90
2019-01-25T01:40:32.818Z,90.60
2019-01-25T01:43:05.424Z,90.60
2019-01-25T01:45:37.928Z,90.60
2019-01-25T01:48:10.631Z,90.60
2019-01-25T01:50:43.117Z,90.50
2019-01-25T01:53:15.725Z,90.60
2019-01-25T01:55:48.431Z,90.40
2019-01-25T01:58:20.921Z,90.60
2019-01-25T02:00:53.525Z,90.50
2019-01-25T02:03:26.134Z,90.80
2019-01-25T02:05:58.532Z,90.90
2019-01-25T02:08:31.321Z,90.90
2019-01-25T02:11:04.029Z,90.90
2019-01-25T02:13:36.725Z,90.80
2019-01-25T02:16:09.328Z,91.10
2019-01-25T02:18:41.819Z,90.70
2019-01-25T02:21:15.767Z,90.50
2019-01-25T02:23:48.473Z,90.70
2019-01-25T02:26:20.978Z,90.00
2019-01-25T02:28:53.486Z,90.60
2019-01-25T02:31:25.884Z,90.70
2019-01-25T02:33:58.292Z,90.70
2019-01-25T02:36:30.796Z,90.20
2019-01-25T02:39:03.409Z,90.60
2019-01-25T02:41:36.003Z,90.60
2019-01-25T02:44:08.076Z,90.50
2019-01-25T02:46:40.053Z,90.00
2019-01-25T02:49:12.070Z,90.20
2019-01-25T02:51:44.121Z,90.00
2019-01-25T02:54:16.432Z,90.30
2019-01-25T02:56:48.453Z,90.10
2019-01-25T02:59:20.487Z,90.60
2019-01-25T03:01:52.534Z,90.40
2019-01-25T03:04:24.552Z,90.20
2019-01-25T03:06:56.595Z,89.80
2019-01-25T03:09:28.641Z,90.10
2019-01-25T03:12:00.736Z,90.10
2019-01-25T03:14:32.776Z,90.40
2019-01-25T03:17:05.043Z,90.40
2019-01-25T03:19:37.125Z,90.00
2019-01-25T03:22:10.408Z,90.20
2019-01-25T03:24:42.496Z,90.20
2019-01-25T03:27:14.469Z,89.80
2019-01-25T03:29:47.263Z,89.60
2019-01-25T03:32:19.304Z,90.10
2019-01-25T03:34:52.216Z,90.10
2019-01-25T03:37:28.500Z,89.20
2019-01-25T03:40:00.596Z,89.60
2019-01-25T03:42:40.015Z,88.80
2019-01-25T03:45:14.029Z,89.30
2019-01-25T03:47:48.946Z,89.20
2019-01-25T03:50:27.440Z,88.80
2019-01-25T03:52:59.829Z,88.50
2019-01-25T03:55:33.888Z,89.40
2019-01-25T03:58:06.048Z,89.30
2019-01-25T04:00:41.393Z,89.30
2019-01-25T04:03:15.008Z,88.40
2019-01-25T04:05:47.031Z,88.00
2019-01-25T04:08:19.005Z,88.10
2019-01-25T04:10:51.202Z,88.50
2019-01-25T04:13:23.256Z,88.40
2019-01-25T04:15:55.601Z,88.50
2019-01-25T04:18:27.643Z,88.50
2019-01-25T04:21:00.236Z,88.80
2019-01-25T04:23:32.674Z,89.00
2019-01-25T04:26:05.109Z,89.30
2019-01-25T04:28:37.085Z,89.30
2019-01-25T04:31:10.070Z,88.20
2019-01-25T04:33:42.975Z,88.10
2019-01-25T04:36:14.992Z,88.10
2019-01-25T04:38:46.972Z,88.00
2019-01-25T04:41:19.064Z,87.60
2019-01-25T04:43:51.320Z,87.40
2019-01-25T04:46:23.330Z,87.00
2019-01-25T04:48:55.308Z,87.50
2019-01-25T04:51:27.327Z,87.10
2019-01-25T04:53:59.301Z,86.90
2019-01-25T04:56:38.137Z,86.90
2019-01-25T04:59:10.410Z,87.50
2019-01-25T05:01:42.508Z,86.70
2019-01-25T05:04:14.558Z,87.80
2019-01-25T05:06:46.567Z,87.80
2019-01-25T05:09:18.836Z,88.40
2019-01-25T05:11:52.940Z,89.30
2019-01-25T05:14:25.336Z,88.60
2019-01-25T05:16:57.692Z,88.60
2019-01-25T05:19:39.040Z,89.60
2019-01-25T05:22:13.467Z,90.00
2019-01-25T05:24:45.729Z,90.20
2019-01-25T05:27:17.816Z,90.50
2019-01-25T05:29:57.228Z,90.30
2019-01-25T05:32:31.148Z,90.10
2019-01-25T05:35:03.135Z,90.00
2019-01-25T05:37:38.918Z,89.00
2019-01-25T05:40:14.380Z,89.00
2019-01-25T05:42:49.097Z,89.40
2019-01-25T05:45:22.980Z,90.30
2019-01-25T05:47:56.357Z,89.80
2019-01-25T05:50:30.242Z,89.40
2019-01-25T05:53:04.380Z,89.30
2019-01-25T05:55:36.530Z,89.10
2019-01-25T05:58:09.520Z,89.40
2019-01-25T06:00:42.790Z,88.80
2019-01-25T06:03:19.380Z,88.60
2019-01-25T06:05:52.829Z,89.40
2019-01-25T06:08:35.407Z,88.60
2019-01-25T06:11:14.384Z,88.50
2019-01-25T06:13:47.657Z,88.50
2019-01-25T06:16:19.845Z,88.40
2019-01-25T06:18:52.679Z,88.90
2019-01-25T06:21:24.652Z,88.00
2019-01-25T06:23:57.493Z,88.10
2019-01-25T06:26:29.467Z,88.00
2019-01-25T06:29:01.480Z,88.90
2019-01-25T06:31:33.452Z,89.40
2019-01-25T06:34:05.537Z,88.90
2019-01-25T06:36:37.517Z,88.50
2019-01-25T06:39:11.350Z,88.40
2019-01-25T06:41:44.161Z,88.00
2019-01-25T06:44:16.470Z,88.50
2019-01-25T06:46:48.454Z,88.00
2019-01-25T06:49:20.470Z,88.70
2019-01-25T06:51:52.442Z,88.60
2019-01-25T06:54:24.524Z,89.00
2019-01-25T06:56:57.475Z,89.20
2019-01-25T06:59:37.473Z,89.40
2019-01-25T07:02:23.039Z,89.60
2019-01-25T07:04:55.041Z,89.20
2019-01-25T07:07:31.434Z,89.40
2019-01-25T07:10:03.490Z,88.60
2019-01-25T07:12:35.464Z,88.30
2019-01-25T07:15:09.623Z,88.40
2019-01-25T07:17:41.609Z,88.50
2019-01-25T07:20:14.884Z,87.60
2019-01-25T07:22:46.860Z,87.10
2019-01-25T07:25:19.101Z,87.50
2019-01-25T07:27:51.074Z,87.40
2019-01-25T07:30:23.103Z,87.70
2019-01-25T07:32:55.443Z,87.20
2019-01-25T07:35:27.531Z,87.20
2019-01-25T07:37:59.505Z,86.50
2019-01-25T07:40:31.595Z,87.00
2019-01-25T07:43:03.785Z,87.10
2019-01-25T07:45:35.869Z,87.10
2019-01-25T07:48:08.122Z,87.20
2019-01-25T07:50:40.209Z,87.10
2019-01-25T07:53:12.562Z,87.50
2019-01-25T07:55:44.694Z,86.70
2019-01-25T07:58:16.761Z,87.10
2019-01-25T08:00:48.936Z,87.10
2019-01-25T08:03:20.906Z,87.10
2019-01-25T08:05:52.978Z,87.10
2019-01-25T08:08:25.002Z,86.10
2019-01-25T08:10:57.117Z,86.50
2019-01-25T08:13:29.264Z,86.90
2019-01-25T08:16:01.390Z,87.10
2019-01-25T08:18:33.411Z,86.60
2019-01-25T08:21:05.488Z,87.80
2019-01-25T08:23:37.553Z,87.90
2019-01-25T08:26:09.744Z,87.40
2019-01-25T08:28:41.797Z,87.90
2019-01-25T08:31:13.981Z,87.40
2019-01-25T08:33:46.032Z,87.10
2019-01-25T08:36:18.168Z,86.70
2019-01-25T08:38:50.218Z,87.50
2019-01-25T08:41:22.336Z,87.40
2019-01-25T08:43:54.361Z,87.20
2019-01-25T08:46:26.443Z,87.20
2019-01-25T08:48:58.510Z,87.40
2019-01-25T08:51:30.609Z,86.60
2019-01-25T08:54:02.569Z,86.70
2019-01-25T08:56:34.785Z,86.00
2019-01-25T08:59:07.143Z,86.90
2019-01-25T09:01:39.236Z,86.80
2019-01-25T09:04:11.384Z,87.20
2019-01-25T09:06:43.392Z,87.60
2019-01-25T09:09:15.415Z,86.80
2019-01-25T09:11:47.493Z,85.10
2019-01-25T09:14:19.477Z,84.40
2019-01-25T09:16:51.486Z,83.90
2019-01-25T09:19:23.472Z,84.80
2019-01-25T09:21:55.490Z,85.60
2019-01-25T09:24:27.467Z,85.30
2019-01-25T09:26:59.465Z,86.00
2019-01-25T09:29:31.446Z,84.70
2019-01-25T09:32:03.458Z,84.40
2019-01-25T09:34:35.450Z,85.50
2019-01-25T09:37:07.461Z,86.00
2019-01-25T09:39:39.515Z,85.60
2019-01-25T09:42:11.525Z,86.40
2019-01-25T09:44:43.497Z,87.00
2019-01-25T09:47:15.512Z,86.40
2019-01-25T09:49:47.557Z,86.10
2019-01-25T09:52:19.562Z,86.40
2019-01-25T09:54:51.540Z,86.80
2019-01-25T09:57:24.708Z,86.70
2019-01-25T09:59:56.712Z,85.60
2019-01-25T10:02:28.782Z,85.50
2019-01-25T10:05:00.745Z,84.20
2019-01-25T10:07:32.755Z,84.50
2019-01-25T10:10:05.106Z,84.50
2019-01-25T10:12:43.283Z,84.10
2019-01-25T10:15:14.901Z,82.90
2019-01-25T10:17:47.084Z,81.30
2019-01-25T10:20:20.277Z,79.50
2019-01-25T10:22:52.376Z,79.40
2019-01-25T10:25:24.433Z,76.80
2019-01-25T10:27:56.440Z,76.60
2019-01-25T10:30:28.930Z,76.00
2019-01-25T10:33:01.030Z,76.00
2019-01-25T10:35:33.172Z,76.80
2019-01-25T10:38:05.388Z,77.70
2019-01-25T10:40:37.438Z,78.40
2019-01-25T10:43:09.603Z,77.50
2019-01-25T10:45:42.538Z,78.70
2019-01-25T10:48:14.554Z,79.50
2019-01-25T10:50:46.599Z,78.90
2019-01-25T10:53:18.632Z,79.20
2019-01-25T10:55:50.696Z,79.50
2019-01-25T10:58:23.505Z,79.90
2019-01-25T11:00:55.548Z,79.40
2019-01-25T11:03:27.619Z,78.60
2019-01-25T11:05:59.598Z,79.40
2019-01-25T11:08:32.906Z,79.40
2019-01-25T11:11:06.063Z,78.80
2019-01-25T11:13:38.137Z,77.30
2019-01-25T11:16:11.978Z,74.40
2019-01-25T11:18:43.835Z,73.10
2019-01-25T11:21:15.803Z,74.10
2019-01-25T11:23:47.982Z,73.40
2019-01-25T11:26:19.948Z,73.50
2019-01-25T11:28:51.964Z,74.10
2019-01-25T11:31:24.017Z,74.70
2019-01-25T11:33:56.030Z,75.60
2019-01-25T11:36:27.994Z,74.00
2019-01-25T11:39:00.006Z,74.40
2019-01-25T11:41:32.052Z,74.30
2019-01-25T11:44:04.160Z,74.80
2019-01-25T11:46:36.251Z,75.70
2019-01-25T11:49:08.333Z,75.90
2019-01-25T11:51:40.302Z,76.10
2019-01-25T11:54:12.308Z,75.80
2019-01-25T11:56:44.375Z,75.60
2019-01-25T11:59:16.376Z,76.00
2019-01-25T12:01:48.347Z,76.70
2019-01-25T12:04:20.349Z,76.30
2019-01-25T12:06:52.326Z,77.10
2019-01-25T12:09:24.332Z,76.90
2019-01-25T12:11:56.649Z,77.20
2019-01-25T12:14:29.153Z,77.70
2019-01-25T12:17:01.112Z,77.70
2019-01-25T12:19:33.126Z,75.60
2019-01-25T12:22:05.097Z,76.10
2019-01-25T12:24:37.107Z,75.80
2019-01-25T12:27:09.150Z,75.10
2019-01-25T12:29:41.154Z,74.00
2019-01-25T12:32:13.122Z,72.70
2019-01-25T12:34:45.209Z,71.10
2019-01-25T12:37:17.250Z,68.90
2019-01-25T12:39:49.267Z,68.70
2019-01-25T12:42:21.304Z,69.90
2019-01-25T12:44:53.308Z,69.70
2019-01-25T12:47:25.288Z,66.50
2019-01-25T12:50:05.113Z,66.80
2019-01-25T12:52:37.083Z,67.80
2019-01-25T12:55:09.599Z,67.10
2019-01-25T12:57:41.663Z,66.70
2019-01-25T13:00:16.618Z,67.20
2019-01-25T13:02:48.580Z,66.50
2019-01-25T13:05:21.028Z,65.70
2019-01-25T13:07:53.267Z,64.70
2019-01-25T13:10:26.291Z,65.80
2019-01-25T13:12:58.460Z,65.40
2019-01-25T13:15:30.594Z,67.10
2019-01-25T13:18:02.554Z,68.20
2019-01-25T13:20:39.515Z,69.80
2019-01-25T13:23:10.472Z,70.40
2019-01-25T13:25:47.103Z,70.50
2019-01-25T13:28:16.165Z,71.60
2019-01-25T13:30:48.500Z,71.20
2019-01-25T13:33:20.567Z,72.10
2019-01-25T13:35:52.576Z,73.00
2019-01-25T13:38:24.636Z,73.60
2019-01-25T13:40:56.639Z,72.50
2019-01-25T13:43:28.614Z,72.30
2019-01-25T13:46:00.696Z,73.60
2019-01-25T13:48:32.961Z,74.30
2019-01-25T13:51:05.167Z,73.80
2019-01-25T13:53:37.216Z,74.80
2019-01-25T13:56:09.323Z,75.30
2019-01-25T13:58:41.620Z,75.50
2019-01-25T14:01:13.716Z,75.80
2019-01-25T14:03:45.680Z,76.10
2019-01-25T14:06:17.698Z,77.50
2019-01-25T14:08:50.034Z,77.00
2019-01-25T14:11:22.117Z,78.00
2019-01-25T14:13:54.166Z,78.00
2019-01-25T14:16:26.284Z,78.60
2019-01-25T14:18:58.319Z,79.30
2019-01-25T14:21:30.339Z,78.30
2019-01-25T14:24:02.323Z,78.80
2019-01-25T14:26:35.500Z,77.80
2019-01-25T14:29:07.864Z,76.60
2019-01-25T14:31:39.875Z,76.00
2019-01-25T14:34:12.033Z,76.30
2019-01-25T14:36:44.128Z,76.30
2019-01-25T14:39:16.113Z,75.50
2019-01-25T14:41:48.171Z,75.00
2019-01-25T14:44:20.141Z,74.90
2019-01-25T14:46:52.158Z,75.30
2019-01-25T14:49:24.212Z,75.50
2019-01-25T14:51:56.294Z,74.60
2019-01-25T14:54:28.276Z,75.00
2019-01-25T14:57:00.299Z,75.00
2019-01-25T14:59:32.473Z,74.40
2019-01-25T15:02:04.571Z,74.60
2019-01-25T15:04:36.543Z,74.40
2019-01-25T15:07:08.642Z,74.80
2019-01-25T15:09:40.729Z,76.00
2019-01-25T15:12:13.035Z,74.50
2019-01-25T15:14:45.136Z,74.80
2019-01-25T15:17:17.226Z,74.90
2019-01-25T15:19:49.284Z,75.10
2019-01-25T15:22:21.587Z,75.10
2019-01-25T15:24:53.582Z,75.10
2019-01-25T15:27:25.577Z,75.30
2019-01-25T15:29:57.630Z,75.90
2019-01-25T15:32:29.634Z,76.00
2019-01-25T15:35:01.618Z,76.10
2019-01-25T15:37:33.622Z,76.80
2019-01-25T15:40:06.715Z,76.50
2019-01-25T15:42:38.899Z,76.50
2019-01-25T15:45:13.763Z,76.50
2019-01-25T15:47:46.191Z,76.60
2019-01-25T15:50:24.055Z,77.30
2019-01-25T15:52:56.992Z,77.40
2019-01-25T15:55:29.396Z,77.70
2019-01-25T15:58:01.586Z,78.30
2019-01-25T16:00:33.649Z,78.10
2019-01-25T16:03:05.867Z,79.10
2019-01-25T16:05:37.851Z,78.70
2019-01-25T16:08:10.059Z,79.80
2019-01-25T16:10:42.241Z,80.30
2019-01-25T16:13:14.335Z,81.40
2019-01-25T16:15:46.391Z,81.60
2019-01-25T16:18:18.410Z,81.90
2019-01-25T16:20:50.386Z,81.90
2019-01-25T16:23:22.403Z,81.80
2019-01-25T16:25:54.685Z,81.70
2019-01-25T16:28:26.738Z,81.60
2019-01-25T16:30:58.778Z,81.50
2019-01-25T16:33:30.806Z,81.90
2019-01-25T16:36:02.795Z,82.70
2019-01-25T16:38:34.808Z,82.40
2019-01-25T16:41:06.994Z,82.50
2019-01-25T16:43:39.074Z,83.60
2019-01-25T16:46:11.063Z,83.50
2019-01-25T16:48:43.072Z,83.20
2019-01-25T16:51:15.052Z,83.60
2019-01-25T16:53:47.066Z,84.00
2019-01-25T16:56:19.128Z,84.20
2019-01-25T16:58:51.134Z,84.30
2019-01-25T17:01:23.106Z,85.10
2019-01-25T17:03:55.107Z,85.10
2019-01-25T17:06:27.229Z,85.40
2019-01-25T17:08:59.320Z,85.80
2019-01-25T17:11:31.365Z,85.90
2019-01-25T17:14:03.379Z,85.60
2019-01-25T17:16:35.389Z,84.80
2019-01-25T17:19:07.579Z,85.80
2019-01-25T17:21:39.594Z,85.30
2019-01-25T17:24:11.625Z,86.40
2019-01-25T17:26:43.641Z,86.00
2019-01-25T17:29:15.666Z,86.50
2019-01-25T17:31:47.661Z,86.80
2019-01-25T17:34:19.673Z,87.20
2019-01-25T17:36:51.670Z,87.10
2019-01-25T17:39:23.694Z,87.80
2019-01-25T17:41:55.705Z,87.80
2019-01-25T17:44:27.797Z,87.50
2019-01-25T17:46:59.797Z,87.70
2019-01-25T17:49:31.818Z,88.10
2019-01-25T17:52:04.924Z,88.50
2019-01-25T17:54:36.935Z,88.90
2019-01-25T17:57:08.946Z,89.50
2019-01-25T17:59:41.328Z,90.00
2019-01-25T18:02:13.447Z,90.00
2019-01-25T18:04:45.459Z,90.20
2019-01-25T18:07:17.477Z,90.20
2019-01-25T18:09:49.501Z,90.30
2019-01-25T18:12:22.963Z,90.20
2019-01-25T18:14:55.052Z,90.30
2019-01-25T18:17:27.167Z,90.30
2019-01-25T18:19:59.259Z,90.30
2019-01-25T18:22:31.268Z,90.20
2019-01-25T18:25:03.280Z,90.50
2019-01-25T18:27:35.311Z,90.70
2019-01-25T18:30:18.793Z,90.70
2019-01-25T18:32:50.902Z,90.90
2019-01-25T18:35:23.356Z,90.90
2019-01-25T18:37:55.514Z,91.10
2019-01-25T18:40:27.546Z,90.80
2019-01-25T18:42:59.621Z,90.70
2019-01-25T18:45:31.636Z,90.70
2019-01-25T18:48:04.777Z,90.60
2019-01-25T18:50:36.894Z,90.70
2019-01-25T18:53:08.979Z,90.70
2019-01-25T18:55:41.147Z,90.70
2019-01-25T18:58:13.148Z,90.80
2019-01-25T19:00:45.164Z,90.50
2019-01-25T19:03:17.243Z,90.30
2019-01-25T19:05:49.272Z,90.50
2019-01-25T19:08:21.290Z,90.60
2019-01-25T19:10:53.739Z,90.60
2019-01-25T19:13:25.751Z,90.60
2019-01-25T19:15:57.760Z,90.60
2019-01-25T19:18:29.776Z,90.70
2019-01-25T19:21:01.886Z,90.50
2019-01-25T19:23:33.893Z,90.70
2019-01-25T19:26:06.014Z,90.80
2019-01-25T19:28:38.017Z,90.70
2019-01-25T19:31:10.150Z,90.70
2019-01-25T19:33:42.237Z,90.50
2019-01-25T19:36:14.342Z,90.80
2019-01-25T19:38:46.347Z,90.90
2019-01-25T19:41:18.362Z,91.10
2019-01-25T19:43:50.459Z,91.20
2019-01-25T19:46:22.491Z,91.10
2019-01-25T19:48:57.032Z,91.00
2019-01-25T19:51:29.229Z,91.00
2019-01-25T19:54:01.425Z,90.90
2019-01-25T19:56:35.609Z,90.90
2019-01-25T19:59:10.704Z,91.10
2019-01-25T20:01:46.059Z,91.10
2019-01-25T20:04:18.171Z,91.30
2019-01-25T20:06:50.203Z,91.10
2019-01-25T20:09:22.284Z,91.10
2019-01-25T20:11:54.340Z,91.30
2019-01-25T20:14:30.484Z,91.30
2019-01-25T20:17:02.926Z,91.30
2019-01-25T20:19:34.942Z,91.40
2019-01-25T20:22:08.159Z,91.30
2019-01-25T20:24:40.259Z,91.30
2019-01-25T20:27:12.292Z,91.40
2019-01-25T20:29:44.418Z,91.40
2019-01-25T20:32:16.511Z,91.30
2019-01-25T20:34:48.521Z,91.30
2019-01-25T20:37:20.623Z,91.50
2019-01-25T20:39:52.633Z,91.40
2019-01-25T20:42:25.598Z,91.40
2019-01-25T20:44:57.609Z,91.30
2019-01-25T20:47:29.768Z,91.30
2019-01-25T20:50:01.888Z,91.40
2019-01-25T20:52:34.940Z,91.40
2019-01-25T20:55:08.419Z,91.40
2019-01-25T20:57:40.539Z,91.40
2019-01-25T21:00:22.983Z,91.40
2019-01-25T21:02:55.025Z,91.40
2019-01-25T21:05:27.032Z,91.40
2019-01-25T21:07:59.384Z,91.50
2019-01-25T21:10:31.767Z,91.50
2019-01-25T21:13:05.379Z,91.40
2019-01-25T21:15:37.530Z,91.30
2019-01-25T21:18:09.719Z,91.20
2019-01-25T21:20:45.518Z,91.40
2019-01-25T21:23:17.806Z,91.30
2019-01-25T21:25:49.917Z,91.20
2019-01-25T21:28:22.030Z,91.40
2019-01-25T21:30:54.123Z,91.30
2019-01-25T21:33:26.774Z,91.40
2019-01-25T21:35:58.942Z,91.40
2019-01-25T21:38:30.961Z,91.50
2019-01-25T21:41:02.978Z,91.50
2019-01-25T21:43:34.975Z,91.20
2019-01-25T21:46:07.104Z,91.40
2019-01-25T21:48:39.115Z,91.00
2019-01-25T21:51:11.131Z,91.20
2019-01-25T21:53:43.137Z,91.20
2019-01-25T21:56:15.156Z,91.40
2019-01-25T21:58:47.172Z,91.30
2019-01-25T22:01:19.394Z,91.30
2019-01-25T22:03:51.404Z,91.10
2019-01-25T22:06:23.662Z,91.20
2019-01-25T22:08:55.910Z,91.30
2019-01-25T22:11:28.123Z,91.60
2019-01-25T22:14:00.134Z,91.50
2019-01-25T22:16:32.504Z,91.60
2019-01-25T22:19:04.614Z,91.80
2019-01-25T22:21:36.973Z,91.80
2019-01-25T22:24:09.094Z,91.70
2019-01-25T22:26:41.094Z,91.90
2019-01-25T22:29:13.362Z,92.00
2019-01-25T22:31:45.364Z,92.00
2019-01-25T22:34:18.146Z,91.70
2019-01-25T22:36:50.331Z,91.80
2019-01-25T22:39:22.353Z,91.80
2019-01-25T22:41:54.353Z,91.80
2019-01-25T22:44:26.344Z,91.70
2019-01-25T22:46:58.353Z,91.80
2019-01-25T22:49:30.372Z,91.80
2019-01-25T22:52:02.369Z,91.70
2019-01-25T22:54:34.398Z,91.80
2019-01-25T22:57:06.641Z,91.80
2019-01-25T22:59:38.772Z,91.80
2019-01-25T23:02:11.310Z,91.90
2019-01-25T23:05:21.030Z,91.80
2019-01-25T23:07:53.101Z,91.80
2019-01-25T23:10:25.560Z,91.70
2019-01-25T23:12:57.558Z,91.70
2019-01-25T23:15:29.583Z,91.60
2019-01-25T23:18:01.801Z,91.80
2019-01-25T23:20:34.114Z,91.80
2019-01-25T23:23:06.197Z,91.70
2019-01-25T23:25:38.208Z,91.70
2019-01-25T23:28:10.306Z,91.90
2019-01-25T23:30:42.323Z,91.90
2019-01-25T23:33:14.415Z,92.00
2019-01-25T23:35:46.444Z,92.30
2019-01-25T23:38:18.507Z,92.10
2019-01-25T23:40:50.586Z,92.10
2019-01-25T23:43:22.666Z,92.10
2019-01-25T23:45:55.210Z,92.00
2019-01-25T23:48:27.284Z,91.80
2019-01-25T23:50:59.391Z,91.70
2019-01-25T23:53:31.398Z,91.90
2019-01-25T23:56:03.397Z,92.20
2019-01-25T23:58:35.362Z,92.40
